createdAt,value
2022-08-17T00:00:33.219Z,15.55
2022-08-17T00:03:05.732Z,15.53
2022-08-17T00:05:35.704Z,15.48
2022-08-17T00:08:04.056Z,15.46
2022-08-17T00:10:33.571Z,15.48
2022-08-17T00:13:03.976Z,15.47
2022-08-17T00:15:32.162Z,15.46
2022-08-17T00:18:00.338Z,15.43
2022-08-17T00:20:34.725Z,15.41
2022-08-17T00:23:07.234Z,15.39
2022-08-17T00:25:36.783Z,15.36
2022-08-17T00:28:06.243Z,15.34
2022-08-17T00:30:53.196Z,15.32
2022-08-17T00:33:23.981Z,15.27
2022-08-17T00:35:52.329Z,15.28
2022-08-17T00:38:20.658Z,15.30
2022-08-17T00:40:51.695Z,15.26
2022-08-17T00:43:22.439Z,15.24
2022-08-17T00:45:50.665Z,15.21
2022-08-17T00:48:30.211Z,15.17
2022-08-17T00:51:05.261Z,15.13
2022-08-17T00:53:34.209Z,15.12
2022-08-17T00:56:04.900Z,15.13
2022-08-17T00:58:36.472Z,15.11
2022-08-17T01:01:06.017Z,15.10
2022-08-17T01:03:34.278Z,15.06
2022-08-17T01:06:02.476Z,15.04
2022-08-17T01:08:31.248Z,15.03
2022-08-17T01:11:04.182Z,15.00
2022-08-17T01:13:40.722Z,15.00
2022-08-17T01:16:13.293Z,15.00
2022-08-17T01:18:42.266Z,14.96
2022-08-17T01:21:12.344Z,14.93
2022-08-17T01:23:42.538Z,14.95
2022-08-17T01:26:10.615Z,14.94
2022-08-17T01:28:53.850Z,14.90
2022-08-17T01:31:23.866Z,14.86
2022-08-17T01:33:52.016Z,14.85
2022-08-17T01:36:20.450Z,14.92
2022-08-17T01:38:49.969Z,14.91
2022-08-17T01:41:18.225Z,14.89
2022-08-17T01:43:47.404Z,14.87
2022-08-17T01:46:16.714Z,14.83
2022-08-17T01:48:47.579Z,14.82
2022-08-17T01:51:16.402Z,14.79
2022-08-17T01:53:46.732Z,14.77
2022-08-17T01:56:17.967Z,14.75
2022-08-17T01:58:46.281Z,14.71
2022-08-17T02:01:17.711Z,14.66
2022-08-17T02:03:59.193Z,14.63
2022-08-17T02:06:29.654Z,14.60
2022-08-17T02:09:03.152Z,14.59
2022-08-17T02:11:33.444Z,14.59
2022-08-17T02:14:04.056Z,14.56
2022-08-17T02:16:37.565Z,14.55
2022-08-17T02:19:07.204Z,14.56
2022-08-17T02:21:35.368Z,14.58
2022-08-17T02:24:03.773Z,14.55
2022-08-17T02:26:33.392Z,14.51
2022-08-17T02:29:01.500Z,14.48
2022-08-17T02:31:31.239Z,14.47
2022-08-17T02:34:04.055Z,14.46
2022-08-17T02:36:33.911Z,14.44
2022-08-17T02:39:02.519Z,14.43
2022-08-17T02:41:31.049Z,14.40
2022-08-17T02:44:00.860Z,14.38
2022-08-17T02:46:29.216Z,14.36
2022-08-17T02:48:57.584Z,14.34
2022-08-17T02:51:25.784Z,14.33
2022-08-17T02:54:39.106Z,14.31
2022-08-17T02:56:42.088Z,14.27
2022-08-17T02:59:11.955Z,14.22
2022-08-17T03:01:40.589Z,14.19
2022-08-17T03:04:08.868Z,14.17
2022-08-17T03:06:37.546Z,14.13
2022-08-17T03:09:05.874Z,14.13
2022-08-17T03:11:34.370Z,14.13
2022-08-17T03:14:02.505Z,14.11
2022-08-17T03:16:31.980Z,14.10
2022-08-17T03:19:01.591Z,14.07
2022-08-17T03:21:29.723Z,14.05
2022-08-17T03:23:58.269Z,14.04
2022-08-17T03:26:29.840Z,14.04
2022-08-17T03:28:58.056Z,14.03
2022-08-17T03:31:26.265Z,14.01
2022-08-17T03:33:56.491Z,14.00
2022-08-17T03:36:24.808Z,13.98
2022-08-17T03:38:53.391Z,13.96
2022-08-17T03:41:23.246Z,13.95
2022-08-17T03:43:51.445Z,13.92
2022-08-17T03:46:36.798Z,13.91
2022-08-17T03:49:24.369Z,13.90
2022-08-17T03:52:10.181Z,13.90
2022-08-17T03:54:55.403Z,13.90
2022-08-17T03:57:23.559Z,13.88
2022-08-17T03:59:51.654Z,13.88
2022-08-17T04:02:21.068Z,13.87
2022-08-17T04:04:51.357Z,13.85
2022-08-17T04:07:19.932Z,13.86
2022-08-17T04:09:48.115Z,13.85
2022-08-17T04:12:16.338Z,13.87
2022-08-17T04:14:52.149Z,13.90
2022-08-17T04:17:22.996Z,13.91
2022-08-17T04:19:53.098Z,13.92
2022-08-17T04:22:32.089Z,13.93
2022-08-17T04:25:09.148Z,13.96
2022-08-17T04:27:37.422Z,13.98
2022-08-17T04:30:07.463Z,14.02
2022-08-17T04:33:03.605Z,14.06
2022-08-17T04:35:36.816Z,14.13
2022-08-17T04:38:05.186Z,14.18
2022-08-17T04:40:50.560Z,14.22
2022-08-17T04:43:19.782Z,14.29
2022-08-17T04:45:55.148Z,14.36
2022-08-17T04:48:29.770Z,14.42
2022-08-17T04:51:10.022Z,14.52
2022-08-17T04:53:39.615Z,14.59
2022-08-17T04:56:08.271Z,14.68
2022-08-17T04:58:44.716Z,14.81
2022-08-17T05:01:13.542Z,14.90
2022-08-17T05:03:42.157Z,14.98
2022-08-17T05:06:11.954Z,15.06
2022-08-17T05:08:40.264Z,15.14
2022-08-17T05:11:08.502Z,15.23
2022-08-17T05:13:36.650Z,15.34
2022-08-17T05:16:05.325Z,15.45
2022-08-17T05:18:33.707Z,15.57
2022-08-17T05:21:01.854Z,15.70
2022-08-17T05:23:41.875Z,15.83
2022-08-17T05:26:21.970Z,15.98
2022-08-17T05:28:57.201Z,16.13
2022-08-17T05:31:28.817Z,16.23
2022-08-17T05:33:57.064Z,16.34
2022-08-17T05:36:41.622Z,16.47
2022-08-17T05:39:15.790Z,16.63
2022-08-17T05:41:49.094Z,16.79
2022-08-17T05:44:17.652Z,16.96
2022-08-17T05:46:48.810Z,17.14
2022-08-17T05:49:17.400Z,17.27
2022-08-17T05:52:14.882Z,17.41
2022-08-17T05:54:56.288Z,17.59
2022-08-17T05:57:56.106Z,17.78
2022-08-17T06:00:30.877Z,17.99
2022-08-17T06:03:08.575Z,18.25
2022-08-17T06:05:46.276Z,18.47
2022-08-17T06:08:18.743Z,18.68
2022-08-17T06:10:53.292Z,18.87
2022-08-17T06:13:24.219Z,19.01
2022-08-17T06:15:57.677Z,19.18
2022-08-17T06:18:27.993Z,19.41
2022-08-17T06:20:57.709Z,19.58
2022-08-17T06:23:27.637Z,19.73
2022-08-17T06:26:03.867Z,19.86
2022-08-17T06:28:37.204Z,20.02
2022-08-17T06:31:07.541Z,20.18
2022-08-17T06:33:37.402Z,20.34
2022-08-17T06:36:15.860Z,20.50
2022-08-17T06:38:47.915Z,20.70
2022-08-17T06:41:19.841Z,20.90
2022-08-17T06:43:52.261Z,21.11
2022-08-17T06:46:23.261Z,21.28
2022-08-17T06:48:58.290Z,21.44
2022-08-17T06:51:29.411Z,21.67
2022-08-17T06:54:01.325Z,21.89
2022-08-17T06:56:54.251Z,22.07
2022-08-17T06:59:25.491Z,22.17
2022-08-17T07:01:56.466Z,22.37
2022-08-17T07:04:27.373Z,22.58
2022-08-17T07:06:58.270Z,22.75
2022-08-17T07:09:29.572Z,22.90
2022-08-17T07:12:00.638Z,23.03
2022-08-17T07:14:36.602Z,23.16
2022-08-17T07:17:08.083Z,23.34
2022-08-17T07:19:38.254Z,23.48
2022-08-17T07:22:14.093Z,23.71
2022-08-17T07:24:47.743Z,23.90
2022-08-17T07:27:21.330Z,24.12
2022-08-17T07:29:53.724Z,24.34
2022-08-17T07:32:25.453Z,24.53
2022-08-17T07:35:15.319Z,24.69
2022-08-17T07:37:45.585Z,24.85
2022-08-17T07:40:19.639Z,24.94
2022-08-17T07:43:19.930Z,25.06
2022-08-17T07:46:33.309Z,25.12
2022-08-17T07:49:33.693Z,25.29
2022-08-17T07:52:24.856Z,25.49
2022-08-17T07:54:51.922Z,25.75
2022-08-17T07:57:34.594Z,25.89
2022-08-17T08:00:32.480Z,26.01
2022-08-17T08:03:03.720Z,26.17
2022-08-17T08:05:50.540Z,26.36
2022-08-17T08:08:26.870Z,26.44
2022-08-17T08:11:08.328Z,26.56
2022-08-17T08:13:40.510Z,26.58
2022-08-17T08:16:27.103Z,26.60
2022-08-17T08:18:57.957Z,26.75
2022-08-17T08:21:34.436Z,26.85
2022-08-17T08:24:17.033Z,26.78
2022-08-17T08:26:47.708Z,26.89
2022-08-17T08:29:28.272Z,27.04
2022-08-17T08:32:02.624Z,27.19
2022-08-17T08:35:01.386Z,27.34
2022-08-17T08:37:42.492Z,27.36
2022-08-17T08:40:16.238Z,27.56
2022-08-17T08:42:46.828Z,27.76
2022-08-17T08:45:16.982Z,27.70
2022-08-17T08:47:57.468Z,27.54
2022-08-17T08:50:40.425Z,27.63
2022-08-17T08:53:14.663Z,27.72
2022-08-17T08:55:49.368Z,27.63
2022-08-17T08:58:30.653Z,27.67
2022-08-17T09:01:08.977Z,27.74
2022-08-17T09:04:18.330Z,27.93
2022-08-17T09:06:50.882Z,28.29
2022-08-17T09:09:25.496Z,28.51
2022-08-17T09:12:02.742Z,28.71
2022-08-17T09:14:44.877Z,28.76
2022-08-17T09:17:16.421Z,28.90
2022-08-17T09:19:49.581Z,29.18
2022-08-17T09:22:25.218Z,29.34
2022-08-17T09:24:57.286Z,29.42
2022-08-17T09:27:28.383Z,29.46
2022-08-17T09:29:58.904Z,29.40
2022-08-17T09:32:34.244Z,29.58
2022-08-17T09:35:10.575Z,29.83
2022-08-17T09:37:44.314Z,30.04
2022-08-17T09:40:15.165Z,30.23
2022-08-17T09:42:46.828Z,30.34
2022-08-17T09:45:24.900Z,30.76
2022-08-17T09:47:55.236Z,31.14
2022-08-17T09:51:03.388Z,31.22
2022-08-17T09:53:17.575Z,31.43
2022-08-17T09:55:58.041Z,31.55
2022-08-17T09:58:30.954Z,31.95
2022-08-17T10:01:02.129Z,32.07
2022-08-17T10:03:39.718Z,31.87
2022-08-17T10:06:13.393Z,32.07
2022-08-17T10:08:45.168Z,32.29
2022-08-17T10:11:20.211Z,32.47
2022-08-17T10:13:52.941Z,32.62
2022-08-17T10:16:24.488Z,33.15
2022-08-17T10:19:07.631Z,33.29
2022-08-17T10:22:01.492Z,33.88
2022-08-17T10:25:21.068Z,33.29
2022-08-17T10:27:52.331Z,32.59
2022-08-17T10:30:22.158Z,32.79
2022-08-17T10:32:55.211Z,33.14
2022-08-17T10:35:43.132Z,32.46
2022-08-17T10:38:38.323Z,31.81
2022-08-17T10:41:19.171Z,32.34
2022-08-17T10:44:37.041Z,32.27
2022-08-17T10:46:52.411Z,32.02
2022-08-17T10:49:25.844Z,32.00
2022-08-17T10:51:54.717Z,31.63
2022-08-17T10:54:38.717Z,31.69
2022-08-17T10:57:39.011Z,31.92
2022-08-17T11:00:14.926Z,32.42
2022-08-17T11:02:49.980Z,32.26
2022-08-17T11:05:43.486Z,31.79
2022-08-17T11:08:42.507Z,31.19
2022-08-17T11:11:20.835Z,31.43
2022-08-17T11:13:52.774Z,32.06
2022-08-17T11:16:39.149Z,33.01
2022-08-17T11:19:32.700Z,33.24
2022-08-17T11:22:18.387Z,33.53
2022-08-17T11:24:47.793Z,33.79
2022-08-17T11:27:25.993Z,34.22
2022-08-17T11:30:01.579Z,34.10
2022-08-17T11:32:33.885Z,33.94
2022-08-17T11:35:22.216Z,33.20
2022-08-17T11:37:55.069Z,32.76
2022-08-17T11:40:39.058Z,32.28
2022-08-17T11:43:30.150Z,32.05
2022-08-17T11:46:08.251Z,31.67
2022-08-17T11:48:56.247Z,31.75
2022-08-17T11:51:34.561Z,31.51
2022-08-17T11:56:59.072Z,30.95
2022-08-17T11:59:59.745Z,31.48
2022-08-17T12:02:38.856Z,31.90
2022-08-17T12:05:28.771Z,32.21
2022-08-17T12:08:15.272Z,32.23
2022-08-17T12:10:51.623Z,32.21
2022-08-17T12:13:20.082Z,31.83
2022-08-17T12:15:52.775Z,31.67
2022-08-17T12:18:22.199Z,31.59
2022-08-17T12:21:00.987Z,31.60
2022-08-17T12:23:35.355Z,31.44
2022-08-17T12:26:05.912Z,31.47
2022-08-17T12:28:35.095Z,31.45
2022-08-17T12:31:05.900Z,31.36
2022-08-17T12:33:34.094Z,31.27
2022-08-17T12:36:04.024Z,31.15
2022-08-17T12:38:35.095Z,31.28
2022-08-17T12:41:25.507Z,31.54
2022-08-17T12:44:01.580Z,31.68
2022-08-17T12:46:33.736Z,31.83
2022-08-17T12:49:15.703Z,31.92
2022-08-17T12:51:45.493Z,31.92
2022-08-17T12:54:24.401Z,31.87
2022-08-17T12:56:52.643Z,31.72
2022-08-17T12:59:28.643Z,31.79
2022-08-17T13:02:00.633Z,31.57
2022-08-17T13:04:29.644Z,31.42
2022-08-17T13:06:59.982Z,31.28
2022-08-17T13:09:36.092Z,31.10
2022-08-17T13:12:09.150Z,30.98
2022-08-17T13:14:37.365Z,30.92
2022-08-17T13:17:12.648Z,30.94
2022-08-17T13:19:48.611Z,31.02
2022-08-17T13:22:16.761Z,31.15
2022-08-17T13:24:53.285Z,31.20
2022-08-17T13:27:21.574Z,31.25
2022-08-17T13:29:53.169Z,31.32
2022-08-17T13:32:26.226Z,31.49
2022-08-17T13:35:12.391Z,31.45
2022-08-17T13:38:01.423Z,31.29
2022-08-17T13:40:37.897Z,31.04
2022-08-17T13:43:06.044Z,30.99
2022-08-17T13:45:39.285Z,31.15
2022-08-17T13:48:13.864Z,31.19
2022-08-17T13:50:43.813Z,31.24
2022-08-17T13:53:22.782Z,31.29
2022-08-17T13:55:52.478Z,31.32
2022-08-17T13:58:21.888Z,31.39
2022-08-17T14:00:51.697Z,31.48
2022-08-17T14:03:21.372Z,31.53
2022-08-17T14:05:50.193Z,31.59
2022-08-17T14:08:18.847Z,31.64
2022-08-17T14:10:47.786Z,31.57
2022-08-17T14:13:18.676Z,31.50
2022-08-17T14:15:55.063Z,31.34
2022-08-17T14:18:37.532Z,31.29
2022-08-17T14:21:14.580Z,31.46
2022-08-17T14:23:54.652Z,31.59
2022-08-17T14:26:23.296Z,31.76
2022-08-17T14:28:54.671Z,31.80
2022-08-17T14:31:25.041Z,31.85
2022-08-17T14:33:54.704Z,32.02
2022-08-17T14:36:22.827Z,32.06
2022-08-17T14:38:51.088Z,32.32
2022-08-17T14:41:22.150Z,32.26
2022-08-17T14:43:51.450Z,32.28
2022-08-17T14:46:19.623Z,32.38
2022-08-17T14:48:48.546Z,32.24
2022-08-17T14:51:18.097Z,32.30
2022-08-17T14:53:46.554Z,32.40
2022-08-17T14:56:14.695Z,32.46
2022-08-17T14:58:43.356Z,32.47
2022-08-17T15:01:12.018Z,32.60
2022-08-17T15:03:41.000Z,32.61
2022-08-17T15:06:09.647Z,32.73
2022-08-17T15:08:39.194Z,32.86
2022-08-17T15:11:07.945Z,32.93
2022-08-17T15:13:52.680Z,32.99
2022-08-17T15:16:21.598Z,32.86
2022-08-17T15:18:50.280Z,32.77
2022-08-17T15:21:18.942Z,32.76
2022-08-17T15:23:48.960Z,32.60
2022-08-17T15:26:17.634Z,32.44
2022-08-17T15:28:48.997Z,32.36
2022-08-17T15:31:32.313Z,32.31
2022-08-17T15:34:00.522Z,32.04
2022-08-17T15:36:29.148Z,31.92
2022-08-17T15:38:59.019Z,31.77
2022-08-17T15:41:28.186Z,31.74
2022-08-17T15:43:56.508Z,31.79
2022-08-17T15:46:25.687Z,31.87
2022-08-17T15:48:55.708Z,31.76
2022-08-17T15:51:26.134Z,31.50
2022-08-17T15:53:55.675Z,31.26
2022-08-17T15:56:25.344Z,31.16
2022-08-17T15:58:54.891Z,31.07
2022-08-17T16:03:01.639Z,31.02
2022-08-17T16:04:29.849Z,30.89
2022-08-17T16:06:58.764Z,30.73
2022-08-17T16:09:26.959Z,30.71
2022-08-17T16:11:56.761Z,30.68
2022-08-17T16:14:30.308Z,30.54
2022-08-17T16:17:02.728Z,30.47
2022-08-17T16:19:30.859Z,30.40
2022-08-17T16:21:59.377Z,30.27
2022-08-17T16:24:27.615Z,30.18
2022-08-17T16:26:57.255Z,30.02
2022-08-17T16:29:25.393Z,29.93
2022-08-17T16:31:54.030Z,29.84
2022-08-17T16:34:22.132Z,29.79
2022-08-17T16:36:55.198Z,29.77
2022-08-17T16:39:26.259Z,29.73
2022-08-17T16:41:54.884Z,29.69
2022-08-17T16:44:25.758Z,29.68
2022-08-17T16:46:54.250Z,29.62
2022-08-17T16:49:35.937Z,29.54
2022-08-17T16:52:07.848Z,29.42
2022-08-17T16:54:36.454Z,29.25
2022-08-17T16:57:05.663Z,29.14
2022-08-17T16:59:41.031Z,29.03
2022-08-17T17:02:15.507Z,28.93
2022-08-17T17:04:48.987Z,28.81
2022-08-17T17:07:25.810Z,28.67
2022-08-17T17:09:55.599Z,28.49
2022-08-17T17:13:01.183Z,28.32
2022-08-17T17:15:18.777Z,28.17
2022-08-17T17:17:50.675Z,28.01
2022-08-17T17:20:21.784Z,27.86
2022-08-17T17:23:01.627Z,27.76
2022-08-17T17:25:31.505Z,27.59
2022-08-17T17:28:02.425Z,27.50
2022-08-17T17:30:34.304Z,27.36
2022-08-17T17:33:04.988Z,27.23
2022-08-17T17:35:34.663Z,27.11
2022-08-17T17:38:05.180Z,26.95
2022-08-17T17:40:36.934Z,26.82
2022-08-17T17:43:34.853Z,26.70
2022-08-17T17:45:57.677Z,26.56
2022-08-17T17:48:35.813Z,26.43
2022-08-17T17:51:09.711Z,26.31
2022-08-17T17:53:43.514Z,26.23
2022-08-17T17:56:19.606Z,26.12
2022-08-17T17:59:03.804Z,25.95
2022-08-17T18:01:42.940Z,25.80
2022-08-17T18:04:21.090Z,25.64
2022-08-17T18:07:15.390Z,25.53
2022-08-17T18:10:01.540Z,25.38
2022-08-17T18:12:36.181Z,25.24
2022-08-17T18:15:21.597Z,25.08
2022-08-17T18:18:22.668Z,24.96
2022-08-17T18:20:54.137Z,24.82
2022-08-17T18:23:28.111Z,24.67
2022-08-17T18:25:56.977Z,24.54
2022-08-17T18:28:26.582Z,24.41
2022-08-17T18:31:12.081Z,24.26
2022-08-17T18:33:42.464Z,24.14
2022-08-17T18:36:11.489Z,24.08
2022-08-17T18:38:40.768Z,23.98
2022-08-17T18:41:20.423Z,23.91
2022-08-17T18:44:00.417Z,23.82
2022-08-17T18:46:30.542Z,23.67
2022-08-17T18:49:01.159Z,23.52
2022-08-17T18:51:40.996Z,23.40
2022-08-17T18:54:17.299Z,23.31
2022-08-17T18:56:49.280Z,23.22
2022-08-17T18:59:28.005Z,23.12
2022-08-17T19:02:10.221Z,23.03
2022-08-17T19:04:59.072Z,22.94
2022-08-17T19:07:29.605Z,22.83
2022-08-17T19:10:00.281Z,22.76
2022-08-17T19:12:33.251Z,22.66
2022-08-17T19:15:01.522Z,22.64
2022-08-17T19:17:35.458Z,22.59
2022-08-17T19:20:09.655Z,22.45
2022-08-17T19:22:46.661Z,22.33
2022-08-17T19:25:17.100Z,22.18
2022-08-17T19:27:49.218Z,22.07
2022-08-17T19:30:27.843Z,22.08
2022-08-17T19:32:57.762Z,22.16
2022-08-17T19:35:30.891Z,22.16
2022-08-17T19:38:04.056Z,22.05
2022-08-17T19:40:52.461Z,21.98
2022-08-17T19:43:24.708Z,21.90
2022-08-17T19:45:59.519Z,21.87
2022-08-17T19:48:35.790Z,21.79
2022-08-17T19:51:07.668Z,21.71
2022-08-17T19:54:03.876Z,21.68
2022-08-17T19:56:32.075Z,21.62
2022-08-17T19:59:02.624Z,21.55
2022-08-17T20:01:35.908Z,21.48
2022-08-17T20:04:08.619Z,21.41
2022-08-17T20:06:40.396Z,21.34
2022-08-17T20:09:15.258Z,21.29
2022-08-17T20:11:46.648Z,21.19
2022-08-17T20:14:16.356Z,21.08
2022-08-17T20:16:44.479Z,20.98
2022-08-17T20:19:24.502Z,20.87
2022-08-17T20:21:56.093Z,20.76
2022-08-17T20:24:30.225Z,20.66
2022-08-17T20:27:00.156Z,20.56
2022-08-17T20:29:37.676Z,20.49
2022-08-17T20:32:25.294Z,20.42
2022-08-17T20:35:17.360Z,20.32
2022-08-17T20:38:02.210Z,20.31
2022-08-17T20:40:35.572Z,20.31
2022-08-17T20:43:37.184Z,20.28
2022-08-17T20:46:13.639Z,20.24
2022-08-17T20:48:43.250Z,20.31
2022-08-17T20:51:27.202Z,20.27
2022-08-17T20:54:27.832Z,20.14
2022-08-17T20:56:57.684Z,20.01
2022-08-17T21:00:18.267Z,19.91
2022-08-17T21:02:47.573Z,19.83
2022-08-17T21:05:30.848Z,19.76
2022-08-17T21:08:00.819Z,19.74
2022-08-17T21:10:36.650Z,19.64
2022-08-17T21:13:46.343Z,19.57
2022-08-17T21:16:32.774Z,19.49
2022-08-17T21:19:07.560Z,19.43
2022-08-17T21:21:41.782Z,19.36
2022-08-17T21:24:16.542Z,19.31
2022-08-17T21:26:51.187Z,19.23
2022-08-17T21:29:31.859Z,19.22
2022-08-17T21:32:23.696Z,19.18
2022-08-17T21:35:28.947Z,19.13
2022-08-17T21:38:00.141Z,19.05
2022-08-17T21:40:29.165Z,18.99
2022-08-17T21:43:00.164Z,18.97
2022-08-17T21:45:31.271Z,18.97
2022-08-17T21:48:12.748Z,18.94
2022-08-17T21:50:42.373Z,18.94
2022-08-17T21:53:10.820Z,18.98
2022-08-17T21:55:39.023Z,19.02
2022-08-17T21:58:13.807Z,18.99
2022-08-17T22:00:44.338Z,18.97
2022-08-17T22:03:24.430Z,18.95
2022-08-17T22:05:52.659Z,18.92
2022-08-17T22:08:23.737Z,18.87
2022-08-17T22:10:52.373Z,18.84
2022-08-17T22:13:23.335Z,18.84
2022-08-17T22:16:15.574Z,18.85
2022-08-17T22:18:58.126Z,18.87
2022-08-17T22:21:26.436Z,18.90
2022-08-17T22:24:05.261Z,18.90
2022-08-17T22:27:00.204Z,18.90
2022-08-17T22:29:57.116Z,18.88
2022-08-17T22:32:37.810Z,18.82
2022-08-17T22:35:40.101Z,18.81
2022-08-17T22:38:26.960Z,18.81
2022-08-17T22:40:56.137Z,18.76
2022-08-17T22:43:26.581Z,18.75
2022-08-17T22:45:58.677Z,18.78
2022-08-17T22:48:27.792Z,18.74
2022-08-17T22:51:04.893Z,18.68
2022-08-17T22:54:04.699Z,18.73
2022-08-17T22:56:50.096Z,18.69
2022-08-17T22:59:35.325Z,18.74
2022-08-17T23:02:22.805Z,18.77
2022-08-17T23:04:53.021Z,18.74
2022-08-17T23:07:21.525Z,18.77
2022-08-17T23:09:50.218Z,18.75
2022-08-17T23:12:22.766Z,18.69
2022-08-17T23:14:52.628Z,18.67
2022-08-17T23:17:22.126Z,18.66
2022-08-17T23:19:50.302Z,18.59
2022-08-17T23:22:18.709Z,18.55
2022-08-17T23:24:49.037Z,18.49
2022-08-17T23:27:17.317Z,18.46
2022-08-17T23:29:47.151Z,18.43
2022-08-17T23:32:16.312Z,18.39
2022-08-17T23:34:48.249Z,18.32
2022-08-17T23:37:16.869Z,18.32
2022-08-17T23:39:45.819Z,18.25
2022-08-17T23:42:15.853Z,18.21
2022-08-17T23:44:44.104Z,18.20
2022-08-17T23:47:12.261Z,18.14
2022-08-17T23:49:41.439Z,18.11
2022-08-17T23:52:12.693Z,18.07
2022-08-17T23:54:44.700Z,18.02
2022-08-17T23:57:13.324Z,18.00
2022-08-17T23:59:43.885Z,17.94
